Time;durP1;ratioP1;P1;durP2;ratioP2;P2;SDS_P1;SDS_P2;PMS_P1;PMS_P2;Temp;Humidity;BMP_temperature;BMP_pressure;BME280_temperature;BME280_humidity;BME280_pressure;Samples;Min_cycle;Max_cycle;Signal;HPM_P1;HPM_P2
2022/02/11 00:02:12;;;;;;;6.07;3.47;;;6.70;99.90;;;;;;5073930;28;20429;-49
2022/02/11 00:07:25;;;;;;;6.37;3.50;;;6.70;99.90;;;;;;5073669;28;20406;-50
2022/02/11 00:09:52;;;;;;;13.20;4.43;;;7.50;99.90;;;;;;5073431;28;20539;-49
2022/02/11 00:12:19;;;;;;;8.30;4.10;;;6.70;99.90;;;;;;5076638;22;20847;-46
2022/02/11 00:14:52;;;;;;;7.83;4.63;;;6.80;99.90;;;;;;5054759;28;20432;-46
2022/02/11 00:17:19;;;;;;;9.73;5.20;;;6.80;99.90;;;;;;5055153;28;20833;-45
2022/02/11 00:19:46;;;;;;;10.53;5.33;;;6.80;99.90;;;;;;5054226;28;20440;-45
2022/02/11 00:22:13;;;;;;;6.90;5.50;;;6.80;99.90;;;;;;5054115;28;20527;-46
2022/02/11 00:24:41;;;;;;;7.27;5.37;;;6.80;99.90;;;;;;5053820;28;20833;-46
2022/02/11 00:27:47;;;;;;;6.70;4.40;;;6.80;99.90;;;;;;5053426;28;20445;-46
2022/02/11 00:30:40;;;;;;;6.20;4.77;;;6.70;99.90;;;;;;5051969;28;20476;-47
2022/02/11 00:33:18;;;;;;;7.53;4.47;;;6.80;99.90;;;;;;5053770;28;20906;-45
2022/02/11 00:35:50;;;;;;;11.20;4.80;;;6.80;99.90;;;;;;5053488;28;20802;-45
2022/02/11 00:38:21;;;;;;;5.97;4.23;;;6.80;99.90;;;;;;5053861;28;20922;-44
2022/02/11 00:41:32;;;;;;;17.87;5.47;;;6.80;99.90;;;;;;5053289;28;20447;-45
2022/02/11 00:47:03;;;;;;;6.03;4.43;;;6.90;99.90;;;;;;5035327;28;20550;-45
2022/02/11 01:03:19;;;;;;;6.60;4.20;;;6.80;99.90;;;;;;5031971;28;20466;-46
2022/02/11 01:05:46;;;;;;;5.83;4.03;;;6.80;99.90;;;;;;5033114;28;21007;-45
2022/02/11 01:08:13;;;;;;;5.80;4.10;;;6.80;99.90;;;;;;5032959;28;20478;-46
2022/02/11 01:10:40;;;;;;;13.13;6.43;;;6.80;99.90;;;;;;5032920;28;20412;-47
2022/02/11 01:13:08;;;;;;;7.50;3.53;;;6.90;99.90;;;;;;5032875;28;20823;-46
2022/02/11 01:15:37;;;;;;;6.43;4.00;;;6.90;99.90;;;;;;5033480;28;20438;-45
2022/02/11 01:18:07;;;;;;;9.30;3.37;;;6.90;99.90;;;;;;5033078;28;20431;-46
2022/02/11 01:20:45;;;;;;;6.87;3.40;;;6.90;99.90;;;;;;5032870;28;20457;-46
2022/02/11 01:23:20;;;;;;;6.27;2.97;;;6.90;99.90;;;;;;5037124;28;20845;-47
2022/02/11 01:28:41;;;;;;;6.90;2.70;;;6.90;99.90;;;;;;5051784;28;20446;-46
2022/02/11 01:31:17;;;;;;;6.70;2.77;;;6.90;99.90;;;;;;5052814;28;20552;-46
2022/02/11 01:34:03;;;;;;;5.10;2.73;;;6.90;99.90;;;;;;5052658;28;20419;-45
2022/02/11 01:36:50;;;;;;;5.10;3.53;;;6.90;99.90;;;;;;5052584;28;20442;-46
2022/02/11 01:39:46;;;;;;;6.77;4.40;;;6.70;99.90;;;;;;5052216;28;20445;-45
2022/02/11 01:45:19;;;;;;;4.80;3.07;;;6.90;99.90;;;;;;5047258;28;20489;-45
2022/02/11 01:48:21;;;;;;;8.27;3.30;;;6.90;99.90;;;;;;5032569;28;20437;-44
2022/02/11 01:50:59;;;;;;;4.80;3.20;;;6.90;99.90;;;;;;5031942;28;20439;-45
2022/02/11 01:53:34;;;;;;;5.43;3.70;;;6.60;99.90;;;;;;5031201;28;20449;-46
2022/02/11 01:56:20;;;;;;;6.53;3.30;;;6.80;99.90;;;;;;5032358;28;20525;-44
2022/02/11 01:59:18;;;;;;;8.70;3.83;;;6.90;99.90;;;;;;5032015;28;20814;-45
2022/02/11 02:02:12;;;;;;;4.63;3.30;;;6.90;99.90;;;;;;5032160;28;20469;-44
2022/02/11 02:10:51;;;;;;;9.03;3.83;;;6.90;99.90;;;;;;5031930;28;20935;-45
2022/02/11 02:13:43;;;;;;;5.40;3.83;;;6.90;99.90;;;;;;5032315;28;20456;-45
2022/02/11 02:16:55;;;;;;;6.87;4.23;;;6.90;99.90;;;;;;5032342;28;20425;-45
2022/02/11 02:19:57;;;;;;;6.03;4.13;;;7.30;99.90;;;;;;5031709;28;20485;-45
2022/02/11 02:22:38;;;;;;;13.00;5.30;;;6.90;99.90;;;;;;5031893;28;20447;-44
2022/02/11 02:25:11;;;;;;;9.67;4.00;;;6.80;99.90;;;;;;5051889;28;20484;-46
2022/02/11 02:27:52;;;;;;;7.50;3.93;;;6.90;99.90;;;;;;5052156;28;20438;-45
2022/02/11 02:38:53;;;;;;;8.10;4.53;;;6.90;99.90;;;;;;5048114;28;20464;-46
2022/02/11 02:58:12;;;;;;;12.57;5.10;;;7.00;99.90;;;;;;5051914;28;20844;-46
2022/02/11 03:14:56;;;;;;;9.20;5.63;;;6.90;99.90;;;;;;5051436;28;20850;-45
2022/02/11 03:17:56;;;;;;;6.20;4.60;;;7.20;99.90;;;;;;5053532;28;20452;-46
2022/02/11 04:08:20;;;;;;;8.90;4.90;;;7.10;99.90;;;;;;5034152;28;20481;-46
2022/02/11 04:55:02;;;;;;;11.50;9.33;;;7.30;99.90;;;;;;5129953;28;20437;-45
2022/02/11 05:00:16;;;;;;;12.67;9.63;;;7.10;99.90;;;;;;5129955;28;20460;-44
2022/02/11 05:02:42;;;;;;;19.77;10.40;;;7.10;99.90;;;;;;5130612;27;20455;-45
2022/02/11 05:05:09;;;;;;;12.30;8.67;;;7.00;99.90;;;;;;5130128;28;20798;-46
2022/02/11 05:07:36;;;;;;;9.20;8.17;;;6.90;99.90;;;;;;5130327;28;20434;-45
2022/02/11 05:10:04;;;;;;;21.50;8.83;;;6.90;99.90;;;;;;5129930;27;20433;-45
2022/02/11 05:12:31;;;;;;;11.77;8.80;;;6.90;99.90;;;;;;5130058;27;20428;-45
2022/02/11 05:14:57;;;;;;;17.70;8.67;;;6.70;99.90;;;;;;5130249;27;20438;-46
2022/02/11 05:17:25;;;;;;;14.63;8.77;;;6.80;99.90;;;;;;5129742;27;20436;-45
2022/02/11 05:19:52;;;;;;;13.27;7.80;;;6.80;99.90;;;;;;5129573;28;20523;-45
2022/02/11 05:22:18;;;;;;;13.43;8.30;;;6.80;99.90;;;;;;5129598;27;20454;-46
2022/02/11 05:24:45;;;;;;;16.27;9.50;;;6.80;99.90;;;;;;5129134;28;20954;-46
2022/02/11 05:27:12;;;;;;;12.40;10.43;;;6.70;99.90;;;;;;5129389;28;20836;-45
2022/02/11 05:29:38;;;;;;;14.57;10.13;;;6.70;99.90;;;;;;5129149;27;20399;-45
2022/02/11 05:32:06;;;;;;;15.13;10.40;;;6.70;99.90;;;;;;5129078;27;20454;-45
2022/02/11 05:34:34;;;;;;;11.90;8.53;;;6.70;99.90;;;;;;5129314;27;20787;-44
2022/02/11 05:37:00;;;;;;;13.73;8.70;;;6.70;99.90;;;;;;5125367;28;20430;-46
2022/02/11 05:39:27;;;;;;;15.40;8.97;;;6.70;99.90;;;;;;5115662;28;20435;-45
2022/02/11 05:41:53;;;;;;;12.87;8.33;;;6.70;99.90;;;;;;5115846;28;20453;-45
2022/02/11 05:44:21;;;;;;;14.30;8.23;;;6.70;99.90;;;;;;5115053;28;20434;-45
2022/02/11 05:46:47;;;;;;;15.10;10.30;;;6.60;99.90;;;;;;5094525;28;20478;-45
2022/02/11 05:49:14;;;;;;;12.27;8.07;;;6.70;99.90;;;;;;5092783;28;20447;-45
2022/02/11 05:51:42;;;;;;;12.27;8.20;;;6.70;99.90;;;;;;5094856;28;20429;-45
2022/02/11 05:54:08;;;;;;;12.70;8.53;;;6.70;99.90;;;;;;5094431;28;20410;-45
2022/02/11 05:56:35;;;;;;;16.20;8.83;;;6.70;99.90;;;;;;5094368;28;20434;-46
2022/02/11 05:59:02;;;;;;;14.87;8.73;;;6.60;99.90;;;;;;5094215;28;20435;-45
2022/02/11 06:01:29;;;;;;;11.57;8.50;;;6.60;99.90;;;;;;5094208;28;20545;-45
2022/02/11 06:03:55;;;;;;;13.90;8.03;;;6.60;99.90;;;;;;5094215;28;20437;-46
2022/02/11 06:06:24;;;;;;;15.07;8.57;;;6.60;99.90;;;;;;5094233;28;20560;-45
2022/02/11 06:08:51;;;;;;;13.23;7.40;;;6.60;99.90;;;;;;5093711;28;20446;-45
2022/02/11 06:11:18;;;;;;;12.60;9.40;;;6.60;99.90;;;;;;5094104;28;20462;-45
2022/02/11 06:13:45;;;;;;;10.17;7.03;;;6.60;99.90;;;;;;5094303;28;20542;-45
2022/02/11 06:16:12;;;;;;;13.13;7.60;;;6.60;99.90;;;;;;5094010;28;20418;-45
2022/02/11 06:18:38;;;;;;;11.70;8.00;;;6.60;99.90;;;;;;5093928;28;20856;-45
2022/02/11 06:21:05;;;;;;;11.67;7.17;;;6.70;99.90;;;;;;5093878;28;20420;-45
2022/02/11 06:23:32;;;;;;;22.30;7.60;;;6.70;99.90;;;;;;5101005;28;20421;-44
2022/02/11 06:26:00;;;;;;;12.03;6.97;;;6.70;99.90;;;;;;5113935;28;20456;-47
2022/02/11 06:28:26;;;;;;;12.03;6.90;;;6.70;99.90;;;;;;5113425;28;20558;-46
2022/02/11 06:30:53;;;;;;;11.87;7.47;;;6.70;99.90;;;;;;5112035;28;20427;-45
2022/02/11 06:33:19;;;;;;;11.50;7.60;;;6.70;99.90;;;;;;5113937;28;20430;-45
2022/02/11 06:35:47;;;;;;;11.30;6.90;;;6.70;99.90;;;;;;5113941;28;20434;-46
2022/02/11 06:38:13;;;;;;;12.53;6.77;;;6.60;99.90;;;;;;5114271;28;20468;-47
2022/02/11 06:40:40;;;;;;;15.03;6.20;;;6.70;99.90;;;;;;5113267;28;20437;-47
2022/02/11 06:43:08;;;;;;;9.70;5.80;;;6.70;99.90;;;;;;5113730;28;20454;-46
2022/02/11 06:45:35;;;;;;;16.57;6.43;;;6.70;99.90;;;;;;5113348;27;20425;-46
2022/02/11 06:48:02;;;;;;;10.47;7.10;;;6.70;99.90;;;;;;5112761;28;20483;-47
2022/02/11 06:50:29;;;;;;;16.13;7.50;;;6.70;99.90;;;;;;5111811;28;20561;-47
2022/02/11 06:52:56;;;;;;;16.80;6.90;;;6.70;99.90;;;;;;5113130;28;20429;-46
2022/02/11 06:55:23;;;;;;;10.03;6.80;;;6.80;99.90;;;;;;5113428;28;20409;-46
2022/02/11 06:57:49;;;;;;;10.10;6.17;;;6.80;99.90;;;;;;5113459;28;20443;-46
2022/02/11 07:00:20;;;;;;;13.03;5.90;;;6.90;99.90;;;;;;5113048;28;20409;-46
2022/02/11 07:02:48;;;;;;;12.40;7.50;;;6.90;99.90;;;;;;5113346;28;20508;-45
2022/02/11 07:05:14;;;;;;;23.57;12.23;;;6.90;99.90;;;;;;5113327;28;20431;-46
2022/02/11 07:07:41;;;;;;;10.53;7.00;;;6.90;99.90;;;;;;5113145;28;20490;-46
2022/02/11 07:10:08;;;;;;;13.53;5.50;;;6.90;99.90;;;;;;5112547;28;20812;-46
2022/02/11 07:12:35;;;;;;;16.07;7.67;;;6.90;99.90;;;;;;5113033;28;21047;-45
2022/02/11 07:15:01;;;;;;;16.00;6.57;;;6.90;99.90;;;;;;5114137;28;20877;-45
2022/02/11 07:17:31;;;;;;;14.40;7.37;;;6.90;99.90;;;;;;5113584;28;20442;-45
2022/02/11 07:19:58;;;;;;;12.60;5.77;;;6.90;99.90;;;;;;5113050;28;20427;-45
2022/02/11 07:22:25;;;;;;;13.73;6.33;;;6.90;99.90;;;;;;5112893;28;20914;-46
2022/02/11 07:24:53;;;;;;;22.93;7.77;;;6.90;99.90;;;;;;5113152;28;20893;-45
2022/02/11 07:27:20;;;;;;;14.10;7.30;;;6.80;99.90;;;;;;5112845;28;20463;-45
2022/02/11 07:29:46;;;;;;;12.23;7.83;;;6.90;99.90;;;;;;5112553;28;20400;-46
2022/02/11 07:32:13;;;;;;;16.60;7.07;;;6.90;99.90;;;;;;5112492;28;20994;-46
2022/02/11 07:34:41;;;;;;;17.53;6.60;;;6.90;99.90;;;;;;5111561;28;20441;-45
2022/02/11 07:37:08;;;;;;;10.40;6.70;;;6.90;99.90;;;;;;5112302;28;20431;-48
2022/02/11 07:39:34;;;;;;;16.43;6.17;;;7.00;99.90;;;;;;5112224;28;20468;-47
2022/02/11 07:42:01;;;;;;;10.87;7.60;;;6.90;99.90;;;;;;5112257;28;20461;-47
2022/02/11 07:44:27;;;;;;;15.50;7.07;;;6.90;99.90;;;;;;5112543;28;20922;-46
2022/02/11 07:46:54;;;;;;;21.70;7.97;;;6.80;99.90;;;;;;5112161;28;20469;-47
2022/02/11 07:49:20;;;;;;;17.83;8.07;;;7.00;99.90;;;;;;5110306;28;21027;-47
2022/02/11 07:51:48;;;;;;;11.90;7.43;;;7.10;99.90;;;;;;5112015;28;20447;-47
2022/02/11 07:54:15;;;;;;;13.93;9.87;;;7.00;99.90;;;;;;5112526;28;20504;-47
2022/02/11 07:56:42;;;;;;;15.93;8.47;;;7.10;99.90;;;;;;5112467;28;20434;-46
2022/02/11 07:59:09;;;;;;;15.30;6.73;;;7.10;99.90;;;;;;5111749;28;20433;-48
2022/02/11 08:01:36;;;;;;;11.23;7.40;;;7.10;99.90;;;;;;5112122;28;20968;-46
2022/02/11 08:04:02;;;;;;;17.40;7.83;;;7.10;99.90;;;;;;5112367;28;20405;-47
2022/02/11 08:06:29;;;;;;;10.47;6.80;;;7.10;99.90;;;;;;5111605;28;20562;-46
2022/02/11 08:08:57;;;;;;;14.03;8.00;;;7.10;99.90;;;;;;5112110;28;20403;-48
2022/02/11 08:11:24;;;;;;;25.70;7.83;;;7.10;99.90;;;;;;5112100;28;20427;-48
2022/02/11 08:13:50;;;;;;;16.07;6.60;;;7.10;99.90;;;;;;5111752;28;20425;-47
2022/02/11 08:16:17;;;;;;;11.47;6.43;;;7.10;99.90;;;;;;5112143;28;20443;-48
2022/02/11 08:18:43;;;;;;;8.93;6.23;;;7.10;99.90;;;;;;5111462;28;20897;-46
2022/02/11 08:21:10;;;;;;;16.40;7.53;;;7.10;99.90;;;;;;5111619;28;20503;-46
2022/02/11 08:23:37;;;;;;;10.13;6.90;;;7.10;99.90;;;;;;5111668;28;20456;-47
2022/02/11 08:26:05;;;;;;;14.87;7.97;;;7.10;99.90;;;;;;5111541;28;20425;-46
2022/02/11 08:28:32;;;;;;;14.52;9.15;;;7.10;99.90;;;;;;5111070;28;20419;-47
2022/02/11 08:30:59;;;;;;;15.60;8.73;;;7.10;99.90;;;;;;5111453;28;20196;-48
2022/02/11 08:33:26;;;;;;;14.07;8.20;;;7.10;99.90;;;;;;5110426;28;20413;-46
2022/02/11 08:35:54;;;;;;;15.13;8.00;;;7.40;99.90;;;;;;5112264;28;20212;-46
2022/02/11 08:38:21;;;;;;;18.47;6.90;;;7.10;99.90;;;;;;5111496;28;20408;-46
2022/02/11 08:40:48;;;;;;;19.30;8.50;;;7.30;99.90;;;;;;5111578;28;20439;-47
2022/02/11 08:43:17;;;;;;;21.90;9.90;;;7.30;99.90;;;;;;5111399;28;20553;-46
2022/02/11 08:45:45;;;;;;;17.63;7.70;;;7.30;99.90;;;;;;5111410;28;20507;-47
2022/02/11 08:48:13;;;;;;;19.50;6.43;;;7.30;99.90;;;;;;5111244;28;20814;-47
2022/02/11 08:50:41;;;;;;;14.38;6.90;;;7.30;99.90;;;;;;5109939;28;20414;-49
2022/02/11 08:53:09;;;;;;;14.93;6.70;;;7.70;99.90;;;;;;5110842;28;20757;-48
2022/02/11 08:55:36;;;;;;;12.70;7.60;;;7.90;99.90;;;;;;5111601;28;20202;-47
2022/02/11 08:58:05;;;;;;;15.00;6.70;;;7.80;99.90;;;;;;5109784;28;20506;-46
2022/02/11 09:00:34;;;;;;;12.40;6.90;;;7.70;99.90;;;;;;5110562;28;20793;-46
2022/02/11 09:03:01;;;;;;;13.60;9.10;;;7.70;99.90;;;;;;5110547;28;20430;-48
2022/02/11 09:05:28;;;;;;;12.60;7.03;;;7.90;99.90;;;;;;5111052;28;20204;-48
2022/02/11 09:07:55;;;;;;;25.40;10.60;;;7.80;99.90;;;;;;5111524;28;20486;-47
2022/02/11 09:10:22;;;;;;;16.90;7.47;;;7.70;99.90;;;;;;5111508;28;20493;-48
2022/02/11 09:12:49;;;;;;;14.23;6.13;;;7.70;99.90;;;;;;5113138;28;20451;-47
2022/02/11 09:15:16;;;;;;;7.57;5.10;;;7.70;99.90;;;;;;5115314;28;20446;-48
2022/02/11 09:17:44;;;;;;;9.73;5.53;;;7.70;99.90;;;;;;5115464;28;20435;-47
2022/02/11 09:20:11;;;;;;;15.77;7.03;;;7.70;99.90;;;;;;5114919;28;20443;-48
2022/02/11 09:22:39;;;;;;;9.33;5.20;;;7.80;99.90;;;;;;5115054;28;20451;-47
2022/02/11 09:25:06;;;;;;;9.80;5.60;;;7.90;99.90;;;;;;5115290;28;20957;-47
2022/02/11 09:27:33;;;;;;;11.43;6.13;;;7.90;99.90;;;;;;5115100;28;20801;-47
2022/02/11 09:30:00;;;;;;;9.70;6.10;;;7.80;99.90;;;;;;5114411;28;20438;-47
2022/02/11 09:32:26;;;;;;;10.97;6.43;;;7.80;99.90;;;;;;5114870;28;20854;-49
2022/02/11 09:34:54;;;;;;;14.70;6.90;;;7.70;99.90;;;;;;5113396;28;20495;-48
2022/02/11 09:37:21;;;;;;;16.70;7.50;;;7.70;99.90;;;;;;5114842;28;20434;-47
2022/02/11 09:39:48;;;;;;;12.33;7.60;;;7.70;99.90;;;;;;5115654;28;20428;-46
2022/02/11 09:42:15;;;;;;;14.33;7.70;;;7.70;99.90;;;;;;5114402;28;20430;-46
2022/02/11 09:44:43;;;;;;;12.90;6.70;;;7.70;99.90;;;;;;5114627;28;20438;-47
2022/02/11 09:47:10;;;;;;;11.73;6.83;;;7.70;99.90;;;;;;5115029;27;20475;-46
2022/02/11 09:49:36;;;;;;;25.47;9.00;;;7.70;99.90;;;;;;5114464;28;20431;-47
2022/02/11 09:52:05;;;;;;;11.23;6.90;;;7.70;99.90;;;;;;5113251;28;20483;-47
2022/02/11 09:54:33;;;;;;;9.30;6.70;;;7.70;99.90;;;;;;5114560;28;20424;-46
2022/02/11 09:57:00;;;;;;;15.60;8.03;;;7.80;99.90;;;;;;5114188;28;20466;-47
2022/02/11 09:59:26;;;;;;;11.50;6.13;;;7.80;99.90;;;;;;5114385;28;20778;-46
2022/02/11 10:01:53;;;;;;;14.13;7.63;;;7.90;99.90;;;;;;5114668;28;20470;-47
2022/02/11 10:04:22;;;;;;;21.10;7.87;;;7.90;99.90;;;;;;5114684;28;20461;-47
2022/02/11 10:06:51;;;;;;;16.40;7.43;;;8.00;99.90;;;;;;5113024;28;20558;-46
2022/02/11 10:09:22;;;;;;;8.97;7.00;;;8.00;99.90;;;;;;5114086;28;20959;-47
2022/02/11 10:11:49;;;;;;;21.43;7.33;;;8.10;99.90;;;;;;5113850;28;20451;-47
2022/02/11 10:14:22;;;;;;;9.57;7.00;;;8.10;99.90;;;;;;5114365;28;20409;-47
2022/02/11 10:16:57;;;;;;;9.23;8.20;;;8.20;99.90;;;;;;5114901;28;20743;-45
2022/02/11 10:19:43;;;;;;;13.90;7.30;;;8.20;99.90;;;;;;5114092;28;20518;-47
2022/02/11 10:22:12;;;;;;;12.60;6.67;;;8.20;99.90;;;;;;5113836;28;20463;-47
2022/02/11 10:24:41;;;;;;;8.97;6.70;;;8.30;99.90;;;;;;5112644;28;20459;-47
2022/02/11 10:27:19;;;;;;;15.67;7.70;;;8.30;99.90;;;;;;5113899;28;20503;-47
2022/02/11 10:29:47;;;;;;;10.53;7.20;;;8.40;99.90;;;;;;5114016;28;20427;-47
2022/02/11 10:32:13;;;;;;;16.88;8.68;;;8.40;99.90;;;;;;5112837;28;20426;-46
2022/02/11 10:34:40;;;;;;;12.77;8.70;;;8.60;99.90;;;;;;5113732;28;20558;-47
2022/02/11 10:37:10;;;;;;;11.57;6.60;;;8.30;99.90;;;;;;5113631;28;20912;-46
2022/02/11 10:39:38;;;;;;;13.60;7.97;;;8.50;99.90;;;;;;5100963;22;20589;-47
2022/02/11 10:42:10;;;;;;;14.63;7.57;;;8.40;99.90;;;;;;5073036;28;20889;-48
2022/02/11 10:44:41;;;;;;;10.20;7.20;;;8.60;99.90;;;;;;5074265;28;20470;-48
2022/02/11 10:47:10;;;;;;;13.17;7.80;;;8.50;99.90;;;;;;5092899;28;20451;-49
2022/02/11 10:49:39;;;;;;;18.47;7.50;;;8.50;99.90;;;;;;5110122;28;20455;-48
2022/02/11 10:52:13;;;;;;;12.40;7.67;;;8.60;99.90;;;;;;5112386;28;20503;-47
2022/02/11 10:54:41;;;;;;;12.27;7.53;;;8.60;99.90;;;;;;5111322;28;20435;-48
2022/02/11 10:57:12;;;;;;;11.20;7.50;;;8.60;99.90;;;;;;5072104;28;20420;-48
2022/02/11 10:59:39;;;;;;;11.50;7.40;;;8.50;99.90;;;;;;5071454;28;20485;-47
2022/02/11 11:02:08;;;;;;;14.60;7.70;;;8.50;99.90;;;;;;5071978;28;20453;-47
2022/02/11 11:04:35;;;;;;;11.80;8.60;;;8.40;99.90;;;;;;5071886;28;20430;-48
2022/02/11 11:07:03;;;;;;;14.93;8.20;;;8.60;99.90;;;;;;5092081;28;20421;-48
2022/02/11 11:09:30;;;;;;;12.40;7.30;;;8.40;99.90;;;;;;5091391;28;20439;-48
2022/02/11 11:11:59;;;;;;;11.13;7.13;;;8.30;99.90;;;;;;5091735;28;20446;-48
2022/02/11 11:14:28;;;;;;;10.80;7.67;;;8.20;99.90;;;;;;5091005;28;20913;-48
2022/02/11 11:16:58;;;;;;;11.80;7.53;;;8.10;99.90;;;;;;5091594;28;20399;-47
2022/02/11 11:19:26;;;;;;;10.50;7.17;;;8.10;99.90;;;;;;5091462;28;20855;-47
2022/02/11 11:24:39;;;;;;;16.42;9.60;;;8.20;99.90;;;;;;5090050;28;20528;-48
2022/02/11 11:27:05;;;;;;;15.27;9.37;;;8.60;99.90;;;;;;5091521;28;20206;-47
2022/02/11 11:29:33;;;;;;;13.43;9.20;;;8.50;99.90;;;;;;5072703;28;20925;-48
2022/02/11 11:32:02;;;;;;;10.27;7.67;;;8.70;99.90;;;;;;5071360;28;20224;-48
2022/02/11 11:34:31;;;;;;;14.68;8.20;;;8.60;99.90;;;;;;5091507;28;20851;-49
2022/02/11 11:37:05;;;;;;;13.37;7.20;;;9.00;99.90;;;;;;5091029;28;20263;-47
2022/02/11 11:39:34;;;;;;;13.00;6.50;;;9.00;99.90;;;;;;5090965;28;20584;-47
2022/02/11 11:42:08;;;;;;;8.40;6.30;;;9.10;99.90;;;;;;5090895;28;20891;-47
2022/02/11 11:44:51;;;;;;;12.63;5.80;;;9.30;99.90;;;;;;5093035;28;20435;-49
2022/02/11 11:47:27;;;;;;;16.30;8.68;;;9.40;99.90;;;;;;5105725;28;20455;-47
2022/02/11 11:49:54;;;;;;;11.03;5.50;;;9.80;99.90;;;;;;5090954;28;20380;-48
2022/02/11 11:52:21;;;;;;;10.23;5.27;;;9.80;99.90;;;;;;5091618;28;20423;-47
2022/02/11 11:54:49;;;;;;;7.83;4.97;;;9.80;99.90;;;;;;5092130;28;20444;-47
2022/02/11 11:57:17;;;;;;;11.33;5.23;;;10.60;99.90;;;;;;5091522;28;20794;-49
2022/02/11 11:59:46;;;;;;;7.77;5.00;;;9.80;99.90;;;;;;5090412;28;20439;-48
2022/02/11 12:02:17;;;;;;;8.23;4.23;;;9.70;99.90;;;;;;5090937;28;20473;-47
2022/02/11 12:04:50;;;;;;;8.40;4.93;;;9.60;99.90;;;;;;5089769;28;20456;-48
2022/02/11 12:07:18;;;;;;;8.57;4.77;;;9.60;99.90;;;;;;5091351;28;20414;-48
2022/02/11 12:09:48;;;;;;;7.00;4.97;;;9.60;99.90;;;;;;5090524;28;20427;-47
2022/02/11 12:12:18;;;;;;;9.90;5.20;;;9.60;99.90;;;;;;5091067;28;20510;-48
2022/02/11 12:14:45;;;;;;;6.43;4.60;;;9.60;99.90;;;;;;5091043;28;20760;-47
2022/02/11 12:17:14;;;;;;;11.07;5.17;;;9.50;99.90;;;;;;5090726;28;20429;-48
2022/02/11 12:19:44;;;;;;;11.90;5.23;;;9.50;99.90;;;;;;5090291;28;20990;-47
2022/02/11 12:22:11;;;;;;;8.70;5.30;;;9.40;99.90;;;;;;5072460;28;21015;-48
2022/02/11 12:27:25;;;;;;;6.63;4.77;;;9.20;99.90;;;;;;5090881;28;20481;-49
2022/02/11 12:29:54;;;;;;;10.20;5.30;;;9.20;99.90;;;;;;5089999;28;20452;-48
2022/02/11 12:32:24;;;;;;;9.70;6.37;;;9.20;99.90;;;;;;5091486;28;20485;-47
2022/02/11 12:34:52;;;;;;;5.53;4.40;;;9.30;99.90;;;;;;5091916;28;20951;-48
2022/02/11 12:37:20;;;;;;;8.00;4.90;;;9.30;99.90;;;;;;5090003;28;20439;-47
2022/02/11 12:39:47;;;;;;;8.83;4.57;;;9.20;99.90;;;;;;5091022;28;20906;-48
2022/02/11 12:42:18;;;;;;;9.20;5.70;;;9.30;99.90;;;;;;5091357;28;20429;-48
2022/02/11 12:44:45;;;;;;;7.10;4.60;;;9.40;99.90;;;;;;5094903;28;20285;-48
2022/02/11 12:47:12;;;;;;;6.57;4.30;;;9.40;99.90;;;;;;5112123;28;20522;-47
2022/02/11 12:49:48;;;;;;;6.37;5.17;;;9.40;99.90;;;;;;5114883;28;20480;-48
2022/02/11 12:52:22;;;;;;;9.17;4.87;;;9.40;99.90;;;;;;5102241;28;20514;-47
2022/02/11 12:55:05;;;;;;;8.80;5.87;;;9.40;99.90;;;;;;5092942;28;20785;-47
2022/02/11 12:57:33;;;;;;;11.25;6.15;;;9.40;99.90;;;;;;5092957;28;20412;-50
2022/02/11 13:00:00;;;;;;;9.33;5.70;;;9.70;99.90;;;;;;5092557;28;20734;-47
2022/02/11 13:02:28;;;;;;;7.10;4.90;;;9.60;99.90;;;;;;5093489;28;20433;-49
2022/02/11 13:05:05;;;;;;;14.20;6.07;;;9.70;99.90;;;;;;5093676;28;20439;-47
2022/02/11 13:07:31;;;;;;;7.43;5.40;;;9.80;99.90;;;;;;5093314;28;20411;-47
2022/02/11 13:09:59;;;;;;;13.00;6.40;;;10.00;99.90;;;;;;5092306;28;20460;-48
2022/02/11 13:12:35;;;;;;;8.53;6.50;;;10.00;99.90;;;;;;5094265;28;20522;-46
2022/02/11 13:15:02;;;;;;;7.40;5.70;;;10.00;99.90;;;;;;5094392;28;20451;-47
2022/02/11 13:17:30;;;;;;;8.63;5.60;;;9.90;99.90;;;;;;5093196;28;20472;-46
2022/02/11 13:20:07;;;;;;;5.60;5.10;;;9.90;99.90;;;;;;5093483;28;20432;-48
2022/02/11 13:22:34;;;;;;;6.70;5.37;;;9.90;99.90;;;;;;5093070;28;20777;-47
2022/02/11 13:25:02;;;;;;;5.70;5.20;;;9.90;99.90;;;;;;5092547;28;20739;-47
2022/02/11 13:27:46;;;;;;;6.93;5.50;;;9.90;99.90;;;;;;5093915;28;20775;-47
2022/02/11 13:30:14;;;;;;;7.10;6.10;;;9.80;99.90;;;;;;5092602;28;20938;-47
2022/02/11 13:32:41;;;;;;;6.73;6.13;;;9.60;99.90;;;;;;5094154;28;20407;-47
2022/02/11 13:35:10;;;;;;;9.38;6.18;;;9.50;99.90;;;;;;5094084;28;20447;-47
2022/02/11 13:37:39;;;;;;;9.90;6.20;;;9.60;99.90;;;;;;5093143;28;20725;-46
2022/02/11 13:40:23;;;;;;;8.80;7.90;;;9.40;99.90;;;;;;5093230;28;20486;-48
2022/02/11 13:43:02;;;;;;;8.90;7.72;;;9.40;99.90;;;;;;5070950;28;20434;-48
2022/02/11 13:45:48;;;;;;;8.60;7.50;;;9.60;99.90;;;;;;5092343;28;20205;-48
2022/02/11 13:48:16;;;;;;;7.57;6.87;;;9.50;99.90;;;;;;5113864;28;20503;-47
2022/02/11 13:51:05;;;;;;;10.20;7.13;;;9.40;99.90;;;;;;5114034;28;20451;-47
2022/02/11 13:53:38;;;;;;;7.30;6.60;;;9.40;99.90;;;;;;5112494;28;20421;-47
2022/02/11 13:56:07;;;;;;;6.60;6.00;;;9.70;99.90;;;;;;5113788;28;20186;-47
2022/02/11 13:58:34;;;;;;;6.97;6.27;;;9.60;99.90;;;;;;5104193;28;20954;-47
2022/02/11 14:01:01;;;;;;;7.67;6.37;;;9.80;99.90;;;;;;5093398;28;20422;-49
2022/02/11 14:03:30;;;;;;;13.10;6.07;;;9.70;99.90;;;;;;5093236;28;20408;-47
2022/02/11 14:06:02;;;;;;;8.87;6.90;;;9.70;99.90;;;;;;5093162;28;20567;-47
2022/02/11 14:08:42;;;;;;;8.87;6.23;;;9.60;99.90;;;;;;5092637;28;20484;-47
2022/02/11 14:11:10;;;;;;;9.83;6.50;;;9.60;99.90;;;;;;5093617;28;20471;-46
2022/02/11 14:13:37;;;;;;;7.70;6.07;;;9.60;99.90;;;;;;5092923;28;20423;-47
2022/02/11 14:16:04;;;;;;;6.13;5.53;;;9.50;99.90;;;;;;5091141;28;20465;-46
2022/02/11 14:18:31;;;;;;;7.70;7.00;;;9.40;99.90;;;;;;5092466;28;20453;-47
2022/02/11 14:20:58;;;;;;;10.23;7.37;;;9.30;99.90;;;;;;5093134;28;20465;-47
2022/02/11 14:23:26;;;;;;;11.50;7.60;;;9.20;99.90;;;;;;5093315;28;20540;-48
2022/02/11 14:25:55;;;;;;;10.50;6.80;;;9.10;99.90;;;;;;5093316;28;20489;-48
2022/02/11 14:28:24;;;;;;;9.83;6.83;;;9.10;99.90;;;;;;5093025;28;20481;-47
2022/02/11 14:30:51;;;;;;;9.30;7.10;;;9.10;99.90;;;;;;5093913;28;20537;-48
2022/02/11 14:33:17;;;;;;;8.52;7.70;;;9.10;99.90;;;;;;5092402;28;20903;-47
2022/02/11 14:35:44;;;;;;;12.00;8.65;;;9.10;99.90;;;;;;5093158;28;20325;-46
2022/02/11 14:38:11;;;;;;;11.32;8.57;;;9.10;99.90;;;;;;5094576;28;20589;-47
2022/02/11 14:41:45;;;;;;;12.65;8.50;;;9.30;99.90;;;;;;5113024;28;20423;-48
2022/02/11 14:43:27;;;;;;;11.77;8.43;;;9.40;99.90;;;;;;5112930;28;20277;-49
2022/02/11 14:45:54;;;;;;;12.13;7.60;;;9.30;99.90;;;;;;5102150;28;20484;-48
2022/02/11 14:48:21;;;;;;;8.77;7.88;;;9.10;99.90;;;;;;5092788;28;20860;-47
2022/02/11 14:50:48;;;;;;;19.35;9.60;;;9.20;99.90;;;;;;5091107;28;20508;-47
2022/02/11 14:53:14;;;;;;;8.23;7.07;;;9.30;99.90;;;;;;5093707;28;20433;-46
2022/02/11 14:55:42;;;;;;;9.60;7.37;;;9.10;99.90;;;;;;5093134;28;20429;-48
2022/02/11 14:58:09;;;;;;;8.40;7.60;;;9.00;99.90;;;;;;5092062;28;20939;-46
2022/02/11 15:00:35;;;;;;;14.53;7.77;;;8.90;99.90;;;;;;5091616;28;20733;-47
2022/02/11 15:03:02;;;;;;;9.30;6.57;;;8.80;99.90;;;;;;5092442;28;20441;-48
2022/02/11 15:05:29;;;;;;;7.30;6.03;;;8.70;99.90;;;;;;5092465;28;20456;-48
2022/02/11 15:07:55;;;;;;;8.07;6.77;;;8.60;99.90;;;;;;5091649;28;20462;-47
2022/02/11 15:10:24;;;;;;;9.52;7.03;;;8.50;99.90;;;;;;5090463;28;20427;-48
2022/02/11 15:12:52;;;;;;;9.90;7.00;;;8.70;99.90;;;;;;5089604;28;20332;-47
2022/02/11 15:15:18;;;;;;;8.45;7.55;;;8.50;99.90;;;;;;5090613;28;20502;-46
2022/02/11 15:17:46;;;;;;;10.10;7.57;;;8.60;99.90;;;;;;5091388;28;20662;-46
2022/02/11 15:20:12;;;;;;;11.33;7.80;;;8.40;99.90;;;;;;5090951;28;20448;-47
2022/02/11 15:22:39;;;;;;;14.47;9.10;;;8.40;99.90;;;;;;5090712;28;20868;-48
2022/02/11 15:25:06;;;;;;;8.30;7.57;;;8.40;99.90;;;;;;5089427;28;20439;-47
2022/02/11 15:27:33;;;;;;;10.30;7.80;;;8.40;99.90;;;;;;5091605;28;20415;-48
2022/02/11 15:30:02;;;;;;;7.30;5.80;;;8.40;99.90;;;;;;5091587;28;20472;-48
2022/02/11 15:32:28;;;;;;;8.40;6.17;;;8.30;99.90;;;;;;5090862;28;20408;-48
2022/02/11 15:34:55;;;;;;;8.40;6.27;;;8.30;99.90;;;;;;5091756;28;20754;-47
2022/02/11 15:37:21;;;;;;;8.43;7.03;;;8.20;99.90;;;;;;5091315;28;20502;-48
2022/02/11 15:39:49;;;;;;;11.43;6.77;;;8.10;99.90;;;;;;5089470;28;20469;-46
2022/02/11 15:42:16;;;;;;;9.40;8.07;;;8.20;99.90;;;;;;5091180;28;20429;-47
2022/02/11 15:44:42;;;;;;;6.50;5.80;;;7.90;99.90;;;;;;5094209;28;20897;-46
2022/02/11 15:47:10;;;;;;;7.30;5.10;;;7.80;99.90;;;;;;5111299;28;20406;-46
2022/02/11 15:49:37;;;;;;;8.90;6.77;;;7.70;99.90;;;;;;5092801;28;21019;-48
2022/02/11 15:52:04;;;;;;;7.67;6.87;;;7.70;99.90;;;;;;5111603;28;20517;-47
2022/02/11 15:54:31;;;;;;;10.70;7.30;;;7.60;99.90;;;;;;5111622;28;20442;-46
2022/02/11 15:56:58;;;;;;;8.90;7.13;;;7.60;99.90;;;;;;5106254;28;20452;-47